Time;durP1;ratioP1;P1;durP2;ratioP2;P2;SDS_P1;SDS_P2;PMS_P1;PMS_P2;Temp;Humidity;BMP_temperature;BMP_pressure;BME280_temperature;BME280_humidity;BME280_pressure;Samples;Min_cycle;Max_cycle;Signal;HPM_P1;HPM_P2
2023/05/17 00:02:21;;;;;;;8.38;3.00;;;;;;;;;;4940687;29;20410;-74
2023/05/17 00:04:47;;;;;;;5.53;2.80;;;;;;;;;;4939746;29;20237;-74
2023/05/17 00:07:13;;;;;;;8.17;3.50;;;;;;;;;;4940149;29;20448;-73
2023/05/17 00:09:39;;;;;;;6.13;2.90;;;;;;;;;;4940491;29;20500;-73
2023/05/17 00:12:05;;;;;;;5.73;2.70;;;;;;;;;;4940992;29;20401;-74
2023/05/17 00:14:31;;;;;;;8.15;3.17;;;;;;;;;;4940395;29;20410;-73
2023/05/17 00:16:57;;;;;;;8.43;3.70;;;;;;;;;;4940346;29;20192;-74
2023/05/17 00:19:23;;;;;;;9.10;3.10;;;;;;;;;;4940785;29;20576;-74
2023/05/17 00:21:49;;;;;;;5.90;3.90;;;;;;;;;;4940163;29;20505;-73
2023/05/17 00:24:15;;;;;;;5.88;2.90;;;;;;;;;;4940026;29;20420;-74
2023/05/17 00:26:41;;;;;;;9.03;3.70;;;;;;;;;;4940297;29;20180;-74
2023/05/17 00:29:07;;;;;;;8.50;3.37;;;;;;;;;;4939646;29;20408;-73
2023/05/17 00:31:33;;;;;;;10.38;3.50;;;;;;;;;;4940753;29;20829;-74
2023/05/17 00:33:59;;;;;;;5.77;2.97;;;;;;;;;;4939870;29;20245;-74
2023/05/17 00:36:25;;;;;;;6.57;3.37;;;;;;;;;;4940564;29;20751;-74
2023/05/17 00:38:51;;;;;;;11.38;3.50;;;;;;;;;;4940369;29;20409;-73
2023/05/17 00:41:17;;;;;;;6.07;3.17;;;;;;;;;;4940129;29;20205;-74
2023/05/17 00:43:43;;;;;;;4.93;3.20;;;;;;;;;;4940469;29;20434;-73
2023/05/17 00:46:09;;;;;;;5.87;3.33;;;;;;;;;;4943926;29;20182;-74
2023/05/17 00:48:35;;;;;;;5.50;2.90;;;;;;;;;;4943405;29;20505;-73
2023/05/17 00:51:01;;;;;;;7.68;2.88;;;;;;;;;;4943220;29;20499;-74
2023/05/17 00:53:28;;;;;;;9.30;4.65;;;;;;;;;;4943690;29;20196;-74
2023/05/17 00:55:54;;;;;;;7.85;3.30;;;;;;;;;;4943637;29;20192;-73
2023/05/17 00:58:21;;;;;;;7.80;4.15;;;;;;;;;;4943814;29;20184;-74
2023/05/17 01:00:47;;;;;;;6.57;3.80;;;;;;;;;;4943958;29;20225;-74
2023/05/17 01:03:13;;;;;;;9.15;3.35;;;;;;;;;;4943442;29;20185;-73
2023/05/17 01:05:39;;;;;;;5.10;3.45;;;;;;;;;;4943633;29;20273;-73
2023/05/17 01:08:05;;;;;;;7.33;3.50;;;;;;;;;;4942819;29;20201;-74
2023/05/17 01:10:36;;;;;;;7.07;3.05;;;;;;;;;;4943188;29;20423;-73
2023/05/17 01:13:09;;;;;;;9.63;3.50;;;;;;;;;;4943470;29;20177;-74
2023/05/17 01:15:41;;;;;;;5.30;3.72;;;;;;;;;;4943971;29;20180;-73
2023/05/17 01:18:19;;;;;;;6.40;3.25;;;;;;;;;;4943393;29;20189;-73
2023/05/17 01:20:45;;;;;;;10.07;3.05;;;;;;;;;;4943425;29;20225;-73
2023/05/17 01:23:21;;;;;;;5.10;2.85;;;;;;;;;;4943705;29;20189;-73
2023/05/17 01:26:06;;;;;;;5.15;3.47;;;;;;;;;;4943141;29;20189;-73
2023/05/17 01:28:32;;;;;;;8.25;4.40;;;;;;;;;;4943227;29;20201;-73
2023/05/17 01:31:00;;;;;;;7.28;3.40;;;;;;;;;;4942957;29;20241;-74
2023/05/17 01:33:26;;;;;;;6.82;3.33;;;;;;;;;;4943033;29;20174;-73
2023/05/17 01:35:52;;;;;;;7.50;3.22;;;;;;;;;;4943257;29;20185;-73
2023/05/17 01:38:18;;;;;;;10.65;3.40;;;;;;;;;;4943183;29;20544;-74
2023/05/17 01:40:51;;;;;;;4.22;3.60;;;;;;;;;;4942810;29;20213;-73
2023/05/17 01:43:22;;;;;;;4.93;3.08;;;;;;;;;;4943351;29;20255;-73
2023/05/17 01:45:56;;;;;;;9.68;3.72;;;;;;;;;;4943180;29;20189;-73
2023/05/17 01:48:28;;;;;;;9.85;3.88;;;;;;;;;;4941291;29;20607;-73
2023/05/17 01:50:56;;;;;;;10.02;3.63;;;;;;;;;;4942947;29;20268;-73
2023/05/17 01:53:39;;;;;;;10.73;4.35;;;;;;;;;;4942112;29;20227;-73
2023/05/17 01:56:08;;;;;;;4.28;3.00;;;;;;;;;;4942239;29;20256;-74
2023/05/17 01:58:39;;;;;;;8.82;3.58;;;;;;;;;;4943074;29;20188;-73
2023/05/17 02:01:06;;;;;;;7.78;3.00;;;;;;;;;;4942865;29;20192;-73
2023/05/17 02:03:32;;;;;;;9.43;4.35;;;;;;;;;;4942661;29;20589;-73
2023/05/17 02:05:58;;;;;;;5.05;3.45;;;;;;;;;;4942517;29;20650;-74
2023/05/17 02:08:24;;;;;;;9.35;4.32;;;;;;;;;;4942633;29;20181;-73
2023/05/17 02:10:50;;;;;;;7.22;3.30;;;;;;;;;;4942468;29;20199;-73
2023/05/17 02:13:16;;;;;;;7.53;3.75;;;;;;;;;;4942227;29;20638;-74
2023/05/17 02:15:42;;;;;;;11.73;5.47;;;;;;;;;;4942736;29;20180;-73
2023/05/17 02:18:10;;;;;;;5.20;4.22;;;;;;;;;;4942296;29;20181;-73
2023/05/17 02:20:36;;;;;;;9.48;4.22;;;;;;;;;;4942554;29;20268;-73
2023/05/17 02:23:02;;;;;;;13.48;4.70;;;;;;;;;;4942158;29;20630;-74
2023/05/17 02:25:28;;;;;;;5.40;3.42;;;;;;;;;;4942549;29;20658;-73
2023/05/17 02:27:54;;;;;;;5.55;3.80;;;;;;;;;;4942839;29;20196;-73
2023/05/17 02:30:21;;;;;;;7.93;3.70;;;;;;;;;;4942255;29;20192;-73
2023/05/17 02:32:47;;;;;;;8.55;2.92;;;;;;;;;;4941689;29;20216;-73
2023/05/17 02:35:13;;;;;;;4.20;3.22;;;;;;;;;;4940308;29;20186;-73
2023/05/17 02:37:40;;;;;;;6.63;4.65;;;;;;;;;;4941893;29;20188;-73
2023/05/17 02:40:08;;;;;;;5.97;3.50;;;;;;;;;;4941544;29;20212;-73
2023/05/17 02:42:35;;;;;;;6.47;4.40;;;;;;;;;;4942072;29;20547;-73
2023/05/17 02:45:01;;;;;;;7.50;4.15;;;;;;;;;;4942105;29;20196;-73
2023/05/17 02:47:27;;;;;;;4.10;3.17;;;;;;;;;;4941514;29;20186;-73
2023/05/17 02:49:53;;;;;;;7.55;4.78;;;;;;;;;;4941981;29;20652;-73
2023/05/17 02:52:19;;;;;;;5.63;4.13;;;;;;;;;;4941581;29;20185;-74
2023/05/17 02:54:45;;;;;;;6.90;4.50;;;;;;;;;;4942064;29;20189;-73
2023/05/17 02:57:11;;;;;;;7.25;4.63;;;;;;;;;;4941624;29;20221;-74
2023/05/17 02:59:37;;;;;;;7.13;4.32;;;;;;;;;;4941517;29;20221;-73
2023/05/17 03:02:03;;;;;;;8.82;4.03;;;;;;;;;;4941048;29;20189;-76
2023/05/17 03:04:29;;;;;;;15.00;5.00;;;;;;;;;;4941265;29;20177;-74
2023/05/17 03:06:55;;;;;;;7.70;4.85;;;;;;;;;;4941060;29;20249;-74
2023/05/17 03:09:21;;;;;;;5.10;4.15;;;;;;;;;;4941315;29;20186;-74
2023/05/17 03:11:47;;;;;;;4.95;4.45;;;;;;;;;;4941614;29;20541;-73
2023/05/17 03:14:13;;;;;;;7.97;4.75;;;;;;;;;;4940296;29;20182;-74
2023/05/17 03:16:39;;;;;;;9.48;5.47;;;;;;;;;;4941590;29;20542;-73
2023/05/17 03:19:05;;;;;;;8.07;5.13;;;;;;;;;;4941714;29;20205;-74
2023/05/17 03:21:31;;;;;;;10.18;5.47;;;;;;;;;;4941797;29;20209;-73
2023/05/17 03:23:57;;;;;;;13.68;4.95;;;;;;;;;;4941532;29;20193;-73
2023/05/17 03:26:23;;;;;;;8.27;5.10;;;;;;;;;;4941853;29;20208;-74
2023/05/17 03:28:50;;;;;;;10.50;5.50;;;;;;;;;;4941650;29;20185;-73
2023/05/17 03:31:16;;;;;;;8.32;6.38;;;;;;;;;;4941612;29;20197;-73
2023/05/17 03:33:42;;;;;;;9.25;5.93;;;;;;;;;;4942135;29;20225;-74
2023/05/17 03:36:08;;;;;;;13.80;6.63;;;;;;;;;;4940590;29;20196;-74
2023/05/17 03:38:34;;;;;;;14.32;6.85;;;;;;;;;;4941158;29;20192;-74
2023/05/17 03:41:00;;;;;;;10.70;5.82;;;;;;;;;;4941380;29;20229;-73
2023/05/17 03:43:27;;;;;;;7.80;5.93;;;;;;;;;;4941184;29;20181;-73
2023/05/17 03:45:53;;;;;;;11.40;5.85;;;;;;;;;;4940928;29;20191;-73
2023/05/17 03:48:19;;;;;;;10.68;6.85;;;;;;;;;;4940812;29;20547;-74
2023/05/17 03:50:45;;;;;;;9.82;6.53;;;;;;;;;;4941136;29;20594;-73
2023/05/17 03:53:11;;;;;;;13.95;6.85;;;;;;;;;;4941201;29;20207;-74
2023/05/17 03:55:37;;;;;;;15.00;6.68;;;;;;;;;;4941647;29;20175;-73
2023/05/17 03:58:03;;;;;;;14.27;6.78;;;;;;;;;;4940884;29;20177;-73
2023/05/17 04:00:29;;;;;;;17.02;7.55;;;;;;;;;;4940875;29;20209;-74
2023/05/17 04:02:55;;;;;;;7.85;5.93;;;;;;;;;;4940940;29;20220;-73
2023/05/17 04:05:21;;;;;;;12.13;6.40;;;;;;;;;;4940845;29;20215;-73
2023/05/17 04:07:47;;;;;;;10.52;6.30;;;;;;;;;;4939716;29;20524;-73
2023/05/17 04:10:14;;;;;;;12.38;6.22;;;;;;;;;;4940814;29;20656;-73
2023/05/17 04:12:40;;;;;;;11.32;7.38;;;;;;;;;;4941531;29;20190;-73
2023/05/17 04:15:06;;;;;;;14.55;6.53;;;;;;;;;;4941417;29;20308;-73
2023/05/17 04:17:32;;;;;;;15.20;6.65;;;;;;;;;;4940619;29;20662;-73
2023/05/17 04:19:58;;;;;;;11.05;6.70;;;;;;;;;;4944175;29;20352;-73
2023/05/17 04:22:24;;;;;;;14.75;7.00;;;;;;;;;;4944704;29;20177;-73
2023/05/17 04:24:50;;;;;;;10.65;5.80;;;;;;;;;;4945471;29;20173;-73
2023/05/17 04:27:16;;;;;;;28.05;7.28;;;;;;;;;;4944419;29;20169;-73
2023/05/17 04:29:42;;;;;;;13.77;7.78;;;;;;;;;;4944353;29;20218;-73
2023/05/17 04:32:09;;;;;;;24.30;7.93;;;;;;;;;;4944548;29;20185;-75
2023/05/17 04:34:36;;;;;;;15.05;7.80;;;;;;;;;;4944586;29;20660;-73
2023/05/17 04:37:02;;;;;;;15.48;7.53;;;;;;;;;;4944379;29;20189;-73
2023/05/17 04:39:28;;;;;;;13.02;7.43;;;;;;;;;;4944497;29;20384;-73
2023/05/17 04:41:55;;;;;;;14.80;7.80;;;;;;;;;;4944534;29;20594;-73
2023/05/17 04:44:21;;;;;;;11.18;7.93;;;;;;;;;;4944543;29;20188;-73
2023/05/17 04:46:47;;;;;;;14.18;8.07;;;;;;;;;;4944681;29;20232;-73
2023/05/17 04:49:13;;;;;;;13.60;8.05;;;;;;;;;;4943898;29;20186;-73
2023/05/17 04:51:39;;;;;;;17.05;9.02;;;;;;;;;;4943574;29;20243;-73
2023/05/17 04:54:07;;;;;;;12.75;8.60;;;;;;;;;;4944438;29;20555;-73
2023/05/17 04:56:34;;;;;;;15.63;9.85;;;;;;;;;;4944295;29;20225;-73
2023/05/17 04:59:01;;;;;;;22.63;10.43;;;;;;;;;;4943720;29;20541;-73
2023/05/17 05:01:29;;;;;;;26.95;11.43;;;;;;;;;;4944227;29;20241;-73
2023/05/17 05:03:56;;;;;;;18.60;9.73;;;;;;;;;;4944072;29;20196;-73
2023/05/17 05:06:22;;;;;;;19.55;11.25;;;;;;;;;;4944105;29;20181;-74
2023/05/17 05:08:48;;;;;;;15.85;11.32;;;;;;;;;;4944323;29;20263;-74
2023/05/17 05:11:14;;;;;;;21.92;12.40;;;;;;;;;;4943765;29;20185;-74
2023/05/17 05:13:41;;;;;;;20.08;11.40;;;;;;;;;;4943794;29;20177;-74
2023/05/17 05:16:07;;;;;;;19.67;11.82;;;;;;;;;;4943504;29;20591;-74
2023/05/17 05:18:33;;;;;;;34.20;13.18;;;;;;;;;;4944003;29;20174;-74
2023/05/17 05:20:59;;;;;;;26.77;13.85;;;;;;;;;;4926463;29;20228;-74
2023/05/17 05:23:25;;;;;;;22.52;14.75;;;;;;;;;;4943939;29;20269;-74
2023/05/17 05:25:52;;;;;;;27.25;14.38;;;;;;;;;;4943929;29;20185;-74
2023/05/17 05:28:18;;;;;;;25.52;16.27;;;;;;;;;;4943204;29;20257;-74
2023/05/17 05:30:44;;;;;;;26.42;15.80;;;;;;;;;;4943191;29;20184;-74
2023/05/17 05:33:10;;;;;;;27.73;16.55;;;;;;;;;;4943930;29;20666;-73
2023/05/17 05:35:36;;;;;;;37.00;17.30;;;;;;;;;;4943002;29;20182;-74
2023/05/17 05:38:02;;;;;;;31.30;15.80;;;;;;;;;;4943244;29;20769;-73
2023/05/17 05:40:28;;;;;;;28.20;17.27;;;;;;;;;;4943240;29;20246;-73
2023/05/17 05:42:54;;;;;;;35.95;19.30;;;;;;;;;;4943578;29;20190;-73
2023/05/17 05:45:20;;;;;;;34.13;17.35;;;;;;;;;;4942987;29;20589;-74
2023/05/17 05:47:46;;;;;;;31.48;17.83;;;;;;;;;;4942638;29;20189;-73
2023/05/17 05:50:12;;;;;;;34.80;18.45;;;;;;;;;;4942877;29;20297;-73
2023/05/17 05:52:38;;;;;;;30.33;18.63;;;;;;;;;;4943269;29;20573;-74
2023/05/17 05:55:05;;;;;;;36.13;16.33;;;;;;;;;;4942173;29;20182;-74
2023/05/17 05:57:31;;;;;;;30.10;17.13;;;;;;;;;;4924108;29;20670;-75
2023/05/17 05:59:57;;;;;;;37.08;17.33;;;;;;;;;;4943239;29;20346;-75
2023/05/17 06:02:23;;;;;;;25.85;15.35;;;;;;;;;;4942623;29;20210;-74
2023/05/17 06:04:49;;;;;;;38.28;15.85;;;;;;;;;;4943376;29;20594;-74
2023/05/17 06:07:15;;;;;;;26.38;16.58;;;;;;;;;;4942283;29;20186;-76
2023/05/17 06:09:41;;;;;;;27.67;15.40;;;;;;;;;;4942486;29;20240;-74
2023/05/17 06:12:08;;;;;;;28.67;15.70;;;;;;;;;;4942429;29;20290;-74
2023/05/17 06:14:36;;;;;;;30.10;16.95;;;;;;;;;;4942510;29;20207;-74
2023/05/17 06:17:02;;;;;;;37.72;17.45;;;;;;;;;;4942700;29;20569;-74
2023/05/17 06:19:28;;;;;;;28.60;16.33;;;;;;;;;;4942031;29;20708;-75
2023/05/17 06:21:54;;;;;;;41.45;15.18;;;;;;;;;;4942633;29;20188;-75
2023/05/17 06:24:20;;;;;;;26.98;15.32;;;;;;;;;;4941848;29;20189;-75
2023/05/17 06:26:47;;;;;;;30.90;15.73;;;;;;;;;;4942332;29;20185;-74
2023/05/17 06:29:13;;;;;;;37.00;17.27;;;;;;;;;;4942186;29;20193;-75
2023/05/17 06:31:39;;;;;;;25.88;15.05;;;;;;;;;;4942338;29;20177;-74
2023/05/17 06:34:05;;;;;;;24.90;14.68;;;;;;;;;;4942367;29;20260;-74
2023/05/17 06:36:31;;;;;;;34.70;15.00;;;;;;;;;;4941858;29;20182;-75
2023/05/17 06:38:57;;;;;;;27.10;13.63;;;;;;;;;;4941617;29;20413;-72
2023/05/17 06:41:23;;;;;;;27.67;15.27;;;;;;;;;;4940865;29;20224;-72
2023/05/17 06:43:49;;;;;;;32.60;14.60;;;;;;;;;;4941586;29;20256;-73
2023/05/17 06:46:15;;;;;;;20.48;13.20;;;;;;;;;;4942228;29;20445;-72
2023/05/17 06:48:41;;;;;;;27.40;13.43;;;;;;;;;;4941985;29;20177;-74
2023/05/17 06:51:07;;;;;;;27.27;11.90;;;;;;;;;;4941774;29;20564;-73
2023/05/17 06:53:33;;;;;;;23.23;10.47;;;;;;;;;;4924601;29;20234;-73
2023/05/17 06:55:59;;;;;;;18.60;8.77;;;;;;;;;;4941583;29;20766;-74
2023/05/17 06:58:25;;;;;;;16.40;9.50;;;;;;;;;;4941331;29;20417;-74
2023/05/17 07:00:51;;;;;;;15.73;9.10;;;;;;;;;;4941208;29;21032;-73
2023/05/17 07:03:17;;;;;;;16.33;8.63;;;;;;;;;;4942001;29;20482;-76
2023/05/17 07:05:43;;;;;;;21.57;8.10;;;;;;;;;;4942271;29;20414;-73
2023/05/17 07:08:09;;;;;;;15.40;7.67;;;;;;;;;;4942218;29;20418;-73
2023/05/17 07:10:35;;;;;;;14.77;7.93;;;;;;;;;;4941697;29;20418;-73
2023/05/17 07:13:01;;;;;;;19.47;8.97;;;;;;;;;;4942061;29;20402;-73
2023/05/17 07:15:27;;;;;;;18.53;8.77;;;;;;;;;;4942004;29;20397;-73
2023/05/17 07:17:53;;;;;;;22.20;9.20;;;;;;;;;;4941589;29;20409;-73
2023/05/17 07:20:20;;;;;;;18.20;8.10;;;;;;;;;;4940772;29;20552;-73
2023/05/17 07:22:47;;;;;;;11.60;7.93;;;;;;;;;;4941260;29;20827;-73
2023/05/17 07:25:14;;;;;;;19.60;8.37;;;;;;;;;;4940914;29;20417;-73
2023/05/17 07:27:40;;;;;;;24.03;9.63;;;;;;;;;;4941210;29;20902;-73
2023/05/17 07:30:06;;;;;;;12.17;7.03;;;;;;;;;;4941058;29;20412;-73
2023/05/17 07:32:32;;;;;;;14.80;7.70;;;;;;;;;;4940909;29;20406;-73
2023/05/17 07:34:58;;;;;;;20.37;8.27;;;;;;;;;;4941375;29;20509;-73
2023/05/17 07:37:24;;;;;;;29.37;7.00;;;;;;;;;;4941232;29;20849;-73
2023/05/17 07:39:50;;;;;;;15.90;7.20;;;;;;;;;;4940658;29;20469;-74
2023/05/17 07:42:16;;;;;;;17.70;6.03;;;;;;;;;;4940771;29;20416;-73
2023/05/17 07:44:42;;;;;;;14.87;5.20;;;;;;;;;;4940611;29;20482;-73
2023/05/17 07:47:08;;;;;;;15.47;5.33;;;;;;;;;;4940755;29;20917;-73
2023/05/17 07:49:34;;;;;;;16.73;4.70;;;;;;;;;;4940902;29;20425;-74
2023/05/17 07:52:01;;;;;;;13.47;5.73;;;;;;;;;;4940935;29;20458;-74
2023/05/17 07:54:27;;;;;;;10.07;4.00;;;;;;;;;;4940062;29;20824;-73
2023/05/17 07:56:54;;;;;;;13.97;3.93;;;;;;;;;;4940354;29;20413;-73
2023/05/17 07:59:23;;;;;;;12.10;3.67;;;;;;;;;;4940570;29;20431;-73
2023/05/17 08:01:49;;;;;;;9.57;3.27;;;;;;;;;;4940809;29;20409;-73
2023/05/17 08:04:15;;;;;;;15.60;3.43;;;;;;;;;;4940829;29;20425;-73
2023/05/17 08:06:41;;;;;;;11.83;3.27;;;;;;;;;;4940188;29;20413;-73
2023/05/17 08:09:07;;;;;;;10.03;3.20;;;;;;;;;;4940266;29;20410;-73
2023/05/17 08:11:33;;;;;;;6.50;2.70;;;;;;;;;;4940556;29;20411;-73
2023/05/17 08:14:04;;;;;;;11.47;3.10;;;;;;;;;;4941308;29;20418;-73
2023/05/17 08:16:30;;;;;;;11.27;2.73;;;;;;;;;;4940254;29;20947;-75
2023/05/17 08:18:56;;;;;;;6.23;2.37;;;;;;;;;;4940560;29;20516;-73
2023/05/17 08:21:22;;;;;;;9.53;3.10;;;;;;;;;;4940758;29;20473;-75
2023/05/17 08:23:48;;;;;;;9.50;1.97;;;;;;;;;;4940816;29;20391;-74
2023/05/17 08:26:14;;;;;;;8.70;2.20;;;;;;;;;;4940733;29;20448;-73
2023/05/17 08:28:40;;;;;;;7.67;2.20;;;;;;;;;;4939990;29;20894;-74
2023/05/17 08:31:06;;;;;;;11.30;2.53;;;;;;;;;;4940308;29;20419;-74
2023/05/17 08:33:32;;;;;;;4.97;2.10;;;;;;;;;;4940889;29;20409;-74
2023/05/17 08:36:00;;;;;;;10.30;2.67;;;;;;;;;;4939913;29;20457;-73
2023/05/17 08:38:26;;;;;;;9.70;2.63;;;;;;;;;;4939721;29;20932;-74
2023/05/17 08:40:58;;;;;;;11.50;2.93;;;;;;;;;;4939953;29;20533;-74
2023/05/17 08:43:25;;;;;;;9.37;2.80;;;;;;;;;;4939950;29;20895;-75
2023/05/17 08:45:51;;;;;;;6.97;2.70;;;;;;;;;;4940922;29;20434;-74
2023/05/17 08:48:19;;;;;;;11.00;2.83;;;;;;;;;;4939708;29;20906;-74
2023/05/17 08:50:46;;;;;;;7.23;3.00;;;;;;;;;;4939688;29;20844;-74
2023/05/17 08:53:13;;;;;;;8.13;2.93;;;;;;;;;;4940142;29;20777;-74
2023/05/17 08:55:42;;;;;;;9.47;3.70;;;;;;;;;;4939463;29;20392;-74
2023/05/17 08:58:08;;;;;;;8.60;4.13;;;;;;;;;;4940282;29;20388;-74
2023/05/17 09:00:35;;;;;;;10.40;3.60;;;;;;;;;;4939566;29;20443;-74
2023/05/17 09:03:01;;;;;;;9.73;3.70;;;;;;;;;;4940064;29;20395;-74
2023/05/17 09:05:27;;;;;;;7.97;3.47;;;;;;;;;;4941082;29;20819;-75
2023/05/17 09:07:53;;;;;;;9.73;3.83;;;;;;;;;;4943546;29;20409;-74
2023/05/17 09:10:19;;;;;;;11.20;3.73;;;;;;;;;;4943463;29;20496;-74
2023/05/17 09:12:45;;;;;;;12.30;3.70;;;;;;;;;;4943022;29;20391;-74
2023/05/17 09:15:16;;;;;;;6.87;2.20;;;;;;;;;;4942987;29;20396;-74
2023/05/17 09:17:42;;;;;;;9.53;3.27;;;;;;;;;;4943081;29;20413;-74
2023/05/17 09:20:09;;;;;;;11.30;3.23;;;;;;;;;;4941591;29;20834;-74
2023/05/17 09:22:38;;;;;;;7.30;2.87;;;;;;;;;;4942802;29;20401;-74
2023/05/17 09:25:04;;;;;;;8.70;2.90;;;;;;;;;;4943245;29;20420;-74
2023/05/17 09:27:34;;;;;;;10.90;2.90;;;;;;;;;;4942112;29;20394;-74
2023/05/17 09:30:00;;;;;;;10.37;3.13;;;;;;;;;;4942943;29;20512;-73
2023/05/17 09:32:27;;;;;;;10.27;3.10;;;;;;;;;;4942639;29;20465;-78
2023/05/17 09:34:55;;;;;;;6.20;3.40;;;;;;;;;;4942299;29;20473;-73
2023/05/17 09:37:23;;;;;;;7.90;2.83;;;;;;;;;;4942878;29;20750;-74
2023/05/17 09:39:49;;;;;;;6.53;2.50;;;;;;;;;;4942138;29;20522;-74
2023/05/17 09:42:15;;;;;;;8.23;2.60;;;;;;;;;;4942329;29;20439;-74
2023/05/17 09:44:49;;;;;;;9.13;3.73;;;;;;;;;;4942152;29;20414;-74
2023/05/17 09:47:22;;;;;;;7.00;2.60;;;;;;;;;;4941862;29;20844;-74
2023/05/17 09:49:48;;;;;;;10.93;2.57;;;;;;;;;;4942041;29;20440;-75
2023/05/17 09:52:18;;;;;;;8.13;2.40;;;;;;;;;;4942097;29;20945;-74
2023/05/17 09:54:51;;;;;;;9.30;2.47;;;;;;;;;;4941783;29;20412;-74
2023/05/17 09:57:17;;;;;;;5.53;2.63;;;;;;;;;;4941625;29;20446;-74
2023/05/17 09:59:44;;;;;;;6.47;3.00;;;;;;;;;;4941926;29;20912;-74
2023/05/17 10:02:15;;;;;;;8.70;2.70;;;;;;;;;;4941761;29;20484;-74
2023/05/17 10:04:41;;;;;;;6.13;3.13;;;;;;;;;;4941543;29;20373;-74
2023/05/17 10:07:07;;;;;;;6.37;2.60;;;;;;;;;;4941779;29;20437;-74
2023/05/17 10:09:36;;;;;;;8.30;2.80;;;;;;;;;;4940960;29;20449;-74
2023/05/17 10:12:02;;;;;;;11.20;3.20;;;;;;;;;;4941530;29;20576;-74
2023/05/17 10:14:32;;;;;;;8.13;2.90;;;;;;;;;;4941122;29;20525;-74
2023/05/17 10:17:00;;;;;;;10.20;2.93;;;;;;;;;;4940846;29;20827;-74
2023/05/17 10:19:26;;;;;;;5.00;2.10;;;;;;;;;;4941019;29;20470;-74
2023/05/17 10:21:53;;;;;;;10.10;2.47;;;;;;;;;;4940257;29;20406;-74
2023/05/17 10:24:23;;;;;;;4.50;2.27;;;;;;;;;;4940040;29;20426;-75
2023/05/17 10:26:52;;;;;;;5.97;2.30;;;;;;;;;;4939839;29;20504;-75
2023/05/17 10:29:21;;;;;;;13.50;2.93;;;;;;;;;;4940222;29;20416;-74
2023/05/17 10:31:49;;;;;;;7.40;3.13;;;;;;;;;;4939896;29;20410;-74
2023/05/17 10:34:16;;;;;;;5.13;1.97;;;;;;;;;;4939785;29;20428;-74
2023/05/17 10:36:43;;;;;;;12.00;2.50;;;;;;;;;;4939708;29;20418;-74
2023/05/17 10:39:10;;;;;;;7.77;2.50;;;;;;;;;;4939898;29;20409;-74
2023/05/17 10:41:37;;;;;;;17.93;3.17;;;;;;;;;;4939222;29;20810;-74
2023/05/17 10:44:04;;;;;;;5.57;2.33;;;;;;;;;;4938793;29;20409;-74
2023/05/17 10:46:31;;;;;;;6.53;2.43;;;;;;;;;;4939015;29;20413;-73
2023/05/17 10:48:59;;;;;;;6.20;2.40;;;;;;;;;;4939408;29;20488;-73
2023/05/17 10:51:36;;;;;;;5.63;2.00;;;;;;;;;;4938817;29;20467;-74
2023/05/17 10:54:02;;;;;;;8.33;3.17;;;;;;;;;;4939735;29;20420;-74
2023/05/17 10:56:31;;;;;;;6.20;2.60;;;;;;;;;;4939549;29;20414;-74
2023/05/17 10:59:20;;;;;;;9.00;2.90;;;;;;;;;;4939791;29;20432;-74
2023/05/17 11:02:05;;;;;;;10.13;2.60;;;;;;;;;;4939563;29;20484;-74
2023/05/17 11:04:38;;;;;;;8.97;2.70;;;;;;;;;;4939239;29;20413;-78
2023/05/17 11:07:24;;;;;;;5.70;2.10;;;;;;;;;;4940271;29;20388;-74
2023/05/17 11:09:53;;;;;;;7.67;2.47;;;;;;;;;;4939629;29;20413;-74
2023/05/17 11:12:31;;;;;;;5.37;2.17;;;;;;;;;;4938203;29;20908;-74
2023/05/17 11:14:57;;;;;;;6.07;2.70;;;;;;;;;;4937911;29;20921;-73
2023/05/17 11:17:36;;;;;;;9.80;2.40;;;;;;;;;;4939296;29;20472;-74
2023/05/17 11:20:08;;;;;;;7.03;2.10;;;;;;;;;;4939081;29;20476;-74
2023/05/17 11:22:36;;;;;;;9.77;2.40;;;;;;;;;;4939006;29;20422;-74
2023/05/17 11:25:05;;;;;;;8.70;1.97;;;;;;;;;;4939292;29;20473;-74
2023/05/17 11:27:35;;;;;;;10.57;2.53;;;;;;;;;;4938604;29;20766;-74
2023/05/17 11:30:08;;;;;;;5.70;2.00;;;;;;;;;;4939061;29;20406;-74
2023/05/17 11:32:34;;;;;;;8.20;2.10;;;;;;;;;;4938839;29;20389;-75
2023/05/17 11:35:00;;;;;;;11.30;2.20;;;;;;;;;;4939116;29;20403;-74
2023/05/17 11:37:28;;;;;;;6.40;2.40;;;;;;;;;;4939109;29;20397;-74
2023/05/17 11:40:01;;;;;;;3.77;2.17;;;;;;;;;;4939149;29;20477;-74
2023/05/17 11:42:27;;;;;;;5.43;1.97;;;;;;;;;;4938735;29;20493;-74
2023/05/17 11:44:57;;;;;;;6.07;2.10;;;;;;;;;;4938771;29;20409;-74
2023/05/17 11:47:23;;;;;;;5.33;2.23;;;;;;;;;;4939131;29;20849;-74
2023/05/17 11:49:51;;;;;;;5.77;2.17;;;;;;;;;;4938589;29;20423;-74
2023/05/17 11:52:17;;;;;;;7.33;2.40;;;;;;;;;;4939276;29;20823;-74
2023/05/17 11:54:44;;;;;;;4.13;1.73;;;;;;;;;;4938846;29;20961;-74
2023/05/17 11:57:13;;;;;;;4.77;1.97;;;;;;;;;;4938982;29;20386;-74
2023/05/17 11:59:39;;;;;;;4.70;1.87;;;;;;;;;;4938551;29;20481;-74
2023/05/17 12:02:05;;;;;;;9.10;2.37;;;;;;;;;;4938598;29;20389;-73
2023/05/17 12:04:36;;;;;;;9.60;2.10;;;;;;;;;;4938817;29;20421;-73
2023/05/17 12:07:02;;;;;;;5.93;2.03;;;;;;;;;;4939146;29;20486;-73
2023/05/17 12:09:28;;;;;;;4.70;1.60;;;;;;;;;;4938776;29;20941;-73
2023/05/17 12:11:55;;;;;;;6.03;2.23;;;;;;;;;;4938347;29;20774;-73
2023/05/17 12:14:21;;;;;;;5.53;2.23;;;;;;;;;;4938706;29;20419;-73
2023/05/17 12:16:49;;;;;;;8.77;2.50;;;;;;;;;;4938784;29;20439;-73
2023/05/17 12:19:19;;;;;;;5.10;2.17;;;;;;;;;;4938630;29;20473;-73
2023/05/17 12:21:46;;;;;;;8.50;2.00;;;;;;;;;;4938218;29;20411;-75
2023/05/17 12:24:12;;;;;;;7.00;2.33;;;;;;;;;;4938037;29;20459;-73
2023/05/17 12:26:45;;;;;;;7.50;2.40;;;;;;;;;;4938625;29;20428;-73
2023/05/17 12:29:12;;;;;;;7.67;2.17;;;;;;;;;;4938832;29;20402;-73
2023/05/17 12:31:45;;;;;;;6.03;1.73;;;;;;;;;;4938614;29;20499;-73
2023/05/17 12:34:12;;;;;;;6.00;2.03;;;;;;;;;;4938090;29;20909;-73
2023/05/17 12:36:39;;;;;;;8.07;2.20;;;;;;;;;;4938649;29;20389;-74
2023/05/17 12:39:08;;;;;;;5.93;2.23;;;;;;;;;;4938828;29;20424;-73
2023/05/17 12:41:35;;;;;;;6.00;1.57;;;;;;;;;;4942338;29;20551;-73
2023/05/17 12:44:01;;;;;;;5.03;2.10;;;;;;;;;;4941343;29;20417;-73
2023/05/17 12:46:27;;;;;;;8.10;2.33;;;;;;;;;;4942086;29;20413;-73
2023/05/17 12:48:54;;;;;;;6.80;2.00;;;;;;;;;;4941816;29;20397;-73
2023/05/17 12:51:23;;;;;;;4.27;2.00;;;;;;;;;;4942248;29;20472;-73
2023/05/17 12:53:53;;;;;;;6.87;2.30;;;;;;;;;;4941912;29;20405;-75
2023/05/17 12:56:22;;;;;;;5.27;2.07;;;;;;;;;;4941485;29;20416;-75
2023/05/17 12:59:07;;;;;;;6.90;1.90;;;;;;;;;;4941500;29;20409;-74
2023/05/17 13:01:34;;;;;;;3.90;2.03;;;;;;;;;;4942028;29;20450;-74
2023/05/17 13:04:00;;;;;;;5.40;2.00;;;;;;;;;;4941393;29;20388;-74
2023/05/17 13:06:26;;;;;;;6.60;2.00;;;;;;;;;;4941937;29;20398;-74
2023/05/17 13:08:59;;;;;;;6.53;2.47;;;;;;;;;;4941789;29;20388;-74
2023/05/17 13:11:25;;;;;;;8.40;2.13;;;;;;;;;;4941597;29;20406;-74
2023/05/17 13:13:51;;;;;;;3.93;2.00;;;;;;;;;;4941437;29;20728;-74
2023/05/17 13:16:17;;;;;;;4.70;2.20;;;;;;;;;;4941578;29;20477;-74
2023/05/17 13:18:47;;;;;;;4.97;1.60;;;;;;;;;;4941333;29;20493;-74
2023/05/17 13:21:13;;;;;;;6.27;2.33;;;;;;;;;;4941473;29;20559;-74
2023/05/17 13:23:43;;;;;;;8.60;2.57;;;;;;;;;;4941513;29;20410;-74
2023/05/17 13:26:09;;;;;;;8.10;1.97;;;;;;;;;;4941238;29;20446;-74
2023/05/17 13:28:36;;;;;;;4.40;1.73;;;;;;;;;;4941785;29;20400;-74
2023/05/17 13:31:02;;;;;;;6.07;1.73;;;;;;;;;;4941262;29;20396;-74
2023/05/17 13:33:28;;;;;;;3.57;1.77;;;;;;;;;;4941632;29;20875;-74
2023/05/17 13:35:54;;;;;;;6.77;1.60;;;;;;;;;;4940408;29;20974;-74
2023/05/17 13:38:20;;;;;;;4.33;1.83;;;;;;;;;;4940802;29;20428;-74
2023/05/17 13:40:46;;;;;;;4.80;1.90;;;;;;;;;;4940052;29;20469;-72
2023/05/17 13:43:12;;;;;;;5.07;2.10;;;;;;;;;;4915388;29;20406;-81
2023/05/17 13:45:38;;;;;;;8.20;2.30;;;;;;;;;;4800758;28;20564;-76
2023/05/17 13:48:04;;;;;;;4.90;2.07;;;;;;;;;;4805103;28;20500;-74
2023/05/17 13:50:30;;;;;;;9.50;1.93;;;;;;;;;;4791219;28;20824;-74
2023/05/17 13:52:57;;;;;;;3.80;1.70;;;;;;;;;;4804277;28;20568;-74
2023/05/17 13:55:23;;;;;;;5.20;2.07;;;;;;;;;;4795462;28;20463;-74
2023/05/17 13:57:49;;;;;;;4.43;1.70;;;;;;;;;;4800141;28;20454;-75
2023/05/17 14:00:15;;;;;;;5.03;2.50;;;;;;;;;;4784498;28;20492;-75
2023/05/17 14:02:42;;;;;;;5.50;2.30;;;;;;;;;;4801364;28;20462;-77
2023/05/17 14:05:08;;;;;;;4.33;1.90;;;;;;;;;;4800583;28;20454;-72
2023/05/17 14:07:39;;;;;;;3.63;1.80;;;;;;;;;;4815979;28;20521;-75
2023/05/17 14:10:06;;;;;;;5.80;2.10;;;;;;;;;;4786934;28;20459;-74
2023/05/17 14:12:32;;;;;;;5.77;2.20;;;;;;;;;;4804062;28;20527;-75
2023/05/17 14:14:58;;;;;;;3.30;2.00;;;;;;;;;;4816462;28;20451;-75
2023/05/17 14:17:24;;;;;;;5.70;2.00;;;;;;;;;;4799558;28;20564;-75
2023/05/17 14:19:51;;;;;;;6.40;1.60;;;;;;;;;;4817335;28;20533;-75
2023/05/17 14:22:17;;;;;;;4.40;1.97;;;;;;;;;;4811058;28;20824;-75
2023/05/17 14:24:43;;;;;;;4.03;1.60;;;;;;;;;;4805236;28;20554;-75
2023/05/17 14:27:10;;;;;;;6.40;1.80;;;;;;;;;;4807148;28;20552;-75
2023/05/17 14:29:36;;;;;;;5.23;2.10;;;;;;;;;;4800423;28;20459;-74
2023/05/17 14:32:02;;;;;;;5.47;1.83;;;;;;;;;;4819820;28;20505;-75
2023/05/17 14:34:29;;;;;;;8.23;2.67;;;;;;;;;;4794299;29;20477;-74
2023/05/17 14:36:55;;;;;;;6.77;2.03;;;;;;;;;;4805718;28;20500;-74